createdAt,value
2019-04-27T00:03:36.501Z,35.90
2019-04-27T00:07:43.950Z,36.50
2019-04-27T00:11:54.046Z,36.20
2019-04-27T00:16:23.490Z,36.17
2019-04-27T00:20:55.232Z,35.10
2019-04-27T00:25:00.868Z,36.27
2019-04-27T00:29:04.637Z,35.53
2019-04-27T00:33:11.274Z,37.07
2019-04-27T00:37:58.015Z,33.97
2019-04-27T00:42:03.191Z,35.60
2019-04-27T00:46:06.723Z,36.47
2019-04-27T00:50:16.205Z,35.23
2019-04-27T00:54:23.790Z,36.37
2019-04-27T00:58:37.572Z,35.20
2019-04-27T01:03:15.142Z,34.83
2019-04-27T01:07:19.610Z,35.80
2019-04-27T01:11:25.892Z,35.40
2019-04-27T01:15:31.141Z,35.23
2019-04-27T01:19:34.921Z,36.00
2019-04-27T01:23:41.855Z,33.43
2019-04-27T01:27:59.611Z,34.27
2019-04-27T01:32:04.276Z,32.33
2019-04-27T01:36:08.923Z,35.00
2019-04-27T01:40:13.080Z,34.70
2019-04-27T01:44:19.770Z,31.53
2019-04-27T01:48:25.768Z,33.80
2019-04-27T01:52:29.151Z,35.07
2019-04-27T01:56:34.391Z,33.60
2019-04-27T02:01:07.328Z,34.40
2019-04-27T02:05:39.043Z,35.10
2019-04-27T02:09:44.520Z,33.30
2019-04-27T02:13:48.818Z,34.20
2019-04-27T02:17:53.498Z,36.83
2019-04-27T02:22:00.150Z,35.53
2019-04-27T02:26:06.418Z,37.20
2019-04-27T02:30:30.635Z,36.70
2019-04-27T02:34:56.583Z,35.00
2019-04-27T02:38:59.754Z,35.63
2019-04-27T02:43:04.899Z,35.70
2019-04-27T02:47:10.502Z,38.17
2019-04-27T02:51:16.817Z,36.27
2019-04-27T02:55:20.074Z,36.20
2019-04-27T02:59:23.854Z,36.73
2019-04-27T03:03:29.979Z,37.80
2019-04-27T03:07:32.479Z,37.63
2019-04-27T03:11:36.042Z,37.90
2019-04-27T03:16:11.388Z,37.60
2019-04-27T03:20:50.179Z,37.50
2019-04-27T03:25:15.701Z,40.20
2019-04-27T03:29:22.948Z,36.80
2019-04-27T03:33:27.359Z,36.47
2019-04-27T03:37:33.372Z,38.90
2019-04-27T03:41:37.223Z,35.20
2019-04-27T03:45:40.537Z,38.67
2019-04-27T03:49:45.406Z,38.97
2019-04-27T03:54:10.908Z,37.50
2019-04-27T03:58:21.678Z,42.10
2019-04-27T04:02:25.114Z,39.30
2019-04-27T04:06:29.513Z,39.50
2019-04-27T04:10:34.905Z,39.53
2019-04-27T04:14:42.480Z,36.37
2019-04-27T04:19:00.803Z,36.93
2019-04-27T04:23:04.302Z,38.17
2019-04-27T04:27:09.662Z,38.20
2019-04-27T04:31:13.865Z,37.60
2019-04-27T04:35:22.666Z,36.47
2019-04-27T04:39:25.666Z,36.83
2019-04-27T04:43:40.118Z,34.10
2019-04-27T04:47:54.547Z,34.87
2019-04-27T04:51:59.445Z,36.93
2019-04-27T04:56:02.236Z,33.27
2019-04-27T05:00:05.585Z,32.90
2019-04-27T05:04:19.332Z,36.93
2019-04-27T05:08:22.939Z,32.80
2019-04-27T05:12:35.018Z,34.10
2019-04-27T05:16:39.088Z,32.50
2019-04-27T05:20:59.780Z,34.73
2019-04-27T05:25:02.770Z,36.10
2019-04-27T05:29:05.707Z,33.17
2019-04-27T05:33:11.722Z,34.57
2019-04-27T05:37:14.791Z,33.37
2019-04-27T05:41:18.731Z,34.57
2019-04-27T05:46:35.654Z,34.97
2019-04-27T05:50:45.362Z,35.20
2019-04-27T05:54:43.770Z,35.33
2019-04-27T05:58:46.904Z,33.80
2019-04-27T06:02:56.172Z,35.30
2019-04-27T06:07:00.997Z,33.20
2019-04-27T06:11:04.204Z,34.40
2019-04-27T06:15:09.528Z,35.90
2019-04-27T06:19:16.086Z,35.90
2019-04-27T06:23:21.015Z,34.87
2019-04-27T06:27:25.690Z,33.70
2019-04-27T06:31:31.862Z,35.43
2019-04-27T06:35:34.917Z,36.10
2019-04-27T06:39:38.654Z,35.40
2019-04-27T06:43:42.087Z,31.33
2019-04-27T06:47:45.829Z,31.60
2019-04-27T06:51:49.775Z,32.40
2019-04-27T06:55:54.425Z,32.77
2019-04-27T06:59:59.146Z,31.00
2019-04-27T07:08:31.273Z,28.40
2019-04-27T07:12:34.369Z,30.00
2019-04-27T07:16:39.061Z,28.10
2019-04-27T07:20:42.356Z,28.40
2019-04-27T07:24:46.551Z,28.17
2019-04-27T07:28:59.905Z,28.13
2019-04-27T07:33:03.825Z,28.00
2019-04-27T07:37:16.270Z,26.50
2019-04-27T07:41:24.044Z,25.47
2019-04-27T07:45:31.638Z,26.43
2019-04-27T07:49:41.401Z,25.17
2019-04-27T07:53:52.143Z,24.00
2019-04-27T07:57:55.266Z,21.37
2019-04-27T08:02:01.597Z,22.37
2019-04-27T08:06:08.803Z,22.07
2019-04-27T08:10:13.766Z,20.40
2019-04-27T08:14:18.523Z,19.20
2019-04-27T08:18:21.815Z,18.70
2019-04-27T08:22:31.606Z,17.50
2019-04-27T08:27:00.612Z,16.13
2019-04-27T08:31:12.422Z,16.30
2019-04-27T08:35:17.003Z,14.60
2019-04-27T08:39:21.094Z,13.23
2019-04-27T08:43:25.396Z,13.03
2019-04-27T08:47:29.535Z,11.10
2019-04-27T08:51:37.039Z,10.10
2019-04-27T08:55:42.154Z,8.90
2019-04-27T08:59:54.206Z,8.63
2019-04-27T09:03:59.220Z,10.30
2019-04-27T09:08:49.511Z,10.07
2019-04-27T09:13:12.154Z,9.97
2019-04-27T09:17:45.716Z,10.20
2019-04-27T09:22:12.719Z,8.00
2019-04-27T09:26:06.384Z,8.97
2019-04-27T09:30:10.274Z,7.90
2019-04-27T09:34:16.838Z,6.47
2019-04-27T09:38:29.884Z,6.80
2019-04-27T09:42:32.719Z,6.00
2019-04-27T09:46:38.733Z,4.43
2019-04-27T09:50:46.561Z,5.00
2019-04-27T09:54:49.189Z,4.37
2019-04-27T09:58:51.976Z,4.67
2019-04-27T10:02:56.437Z,4.60
2019-04-27T10:07:06.233Z,4.80
2019-04-27T10:11:09.233Z,4.33
2019-04-27T10:15:12.293Z,4.60
2019-04-27T10:19:27.873Z,3.53
2019-04-27T10:23:22.852Z,2.03
2019-04-27T10:27:29.628Z,2.10
2019-04-27T10:31:32.502Z,2.87
2019-04-27T10:35:36.311Z,1.80
2019-04-27T10:39:45.990Z,2.27
2019-04-27T10:43:51.900Z,2.10
2019-04-27T10:47:58.284Z,1.60
2019-04-27T10:52:05.839Z,2.33
2019-04-27T10:56:08.857Z,2.23
2019-04-27T11:00:16.685Z,1.90
2019-04-27T11:04:38.168Z,1.87
2019-04-27T11:08:42.201Z,1.70
2019-04-27T11:12:45.845Z,1.60
2019-04-27T11:16:48.896Z,1.50
2019-04-27T11:20:52.045Z,1.70
2019-04-27T11:24:56.348Z,1.80
2019-04-27T11:28:59.337Z,1.70
2019-04-27T11:33:08.456Z,1.80
2019-04-27T11:37:11.278Z,1.53
2019-04-27T11:41:16.853Z,1.30
2019-04-27T11:45:19.861Z,1.10
2019-04-27T11:49:22.633Z,1.10
2019-04-27T11:53:26.203Z,1.40
2019-04-27T11:57:29.209Z,1.30
2019-04-27T12:01:32.042Z,1.33
2019-04-27T12:05:36.279Z,1.33
2019-04-27T12:09:42.095Z,1.37
2019-04-27T12:13:46.131Z,1.23
2019-04-27T12:17:49.324Z,1.33
2019-04-27T12:21:52.181Z,1.10
2019-04-27T12:25:56.304Z,1.50
2019-04-27T12:30:07.559Z,1.30
2019-04-27T12:34:10.394Z,1.23
2019-04-27T12:38:13.178Z,1.30
2019-04-27T12:42:16.319Z,1.33
2019-04-27T12:46:19.132Z,1.00
2019-04-27T12:50:22.030Z,1.37
2019-04-27T12:54:44.295Z,1.47
2019-04-27T12:58:51.309Z,1.00
2019-04-27T13:02:55.595Z,1.40
2019-04-27T13:06:58.709Z,1.30
2019-04-27T13:11:01.455Z,1.10
2019-04-27T13:15:05.729Z,1.30
2019-04-27T13:19:08.582Z,1.40
2019-04-27T13:23:11.455Z,0.93
2019-04-27T13:27:14.410Z,0.70
2019-04-27T13:31:17.190Z,0.80
2019-04-27T13:35:19.967Z,1.00
2019-04-27T13:39:22.766Z,1.30
2019-04-27T13:43:31.144Z,0.93
2019-04-27T13:47:56.231Z,1.33
2019-04-27T13:52:36.813Z,4.10
2019-04-27T13:56:43.407Z,5.50
2019-04-27T14:00:46.178Z,4.37
2019-04-27T14:04:48.997Z,4.20
2019-04-27T14:08:51.844Z,2.80
2019-04-27T14:12:54.682Z,2.60
2019-04-27T14:17:07.879Z,3.33
2019-04-27T14:21:11.073Z,3.33
2019-04-27T14:25:14.128Z,3.70
2019-04-27T14:29:18.774Z,4.40
2019-04-27T14:33:21.576Z,4.67
2019-04-27T14:37:24.434Z,4.70
2019-04-27T14:41:30.197Z,4.57
2019-04-27T14:45:35.438Z,5.00
2019-04-27T14:49:42.960Z,5.00
2019-04-27T14:53:48.783Z,5.10
2019-04-27T14:57:51.522Z,4.97
2019-04-27T15:01:55.538Z,5.00
2019-04-27T15:06:01.398Z,4.80
2019-04-27T15:10:05.107Z,4.40
2019-04-27T15:14:09.078Z,4.10
2019-04-27T15:18:12.158Z,4.20
2019-04-27T15:22:23.115Z,4.13
2019-04-27T15:26:25.985Z,3.80
2019-04-27T15:30:50.857Z,5.10
2019-04-27T15:35:05.334Z,5.20
2019-04-27T15:39:15.235Z,5.40
2019-04-27T15:43:27.260Z,6.33
2019-04-27T15:47:29.091Z,6.07
2019-04-27T15:51:31.895Z,6.77
2019-04-27T15:55:38.874Z,6.67
2019-04-27T15:59:40.955Z,6.60
2019-04-27T16:03:48.130Z,6.80
2019-04-27T16:08:15.678Z,7.47
2019-04-27T16:12:18.651Z,7.43
2019-04-27T16:16:24.630Z,7.47
2019-04-27T16:20:30.112Z,7.40
2019-04-27T16:24:30.715Z,7.30
2019-04-27T16:28:33.570Z,7.03
2019-04-27T16:32:36.445Z,6.40
2019-04-27T16:36:43.537Z,6.37
2019-04-27T16:40:46.382Z,6.13
2019-04-27T16:44:53.051Z,5.17
2019-04-27T16:48:54.385Z,4.60
2019-04-27T16:53:00.840Z,4.40
2019-04-27T16:57:05.026Z,4.90
2019-04-27T17:01:21.358Z,4.10
2019-04-27T17:05:28.335Z,4.47
2019-04-27T17:09:29.563Z,4.60
2019-04-27T17:13:34.924Z,4.23
2019-04-27T17:17:51.180Z,3.93
2019-04-27T17:21:58.220Z,4.67
2019-04-27T17:26:09.280Z,4.90
2019-04-27T17:30:08.957Z,4.50
2019-04-27T17:34:12.300Z,5.03
2019-04-27T17:38:17.966Z,5.70
2019-04-27T17:42:22.834Z,5.70
2019-04-27T17:46:25.761Z,5.60
2019-04-27T17:50:31.714Z,5.60
2019-04-27T17:54:40.821Z,4.87
2019-04-27T17:58:42.763Z,4.60
2019-04-27T18:02:45.815Z,4.37
2019-04-27T18:06:48.839Z,4.80
2019-04-27T18:10:53.619Z,4.33
2019-04-27T18:14:58.166Z,5.40
2019-04-27T18:19:23.523Z,8.73
2019-04-27T18:23:28.874Z,7.23
2019-04-27T18:27:39.028Z,7.03
2019-04-27T18:31:42.199Z,6.70
2019-04-27T18:35:45.426Z,7.30
2019-04-27T18:39:50.899Z,7.27
2019-04-27T18:43:55.165Z,7.40
2019-04-27T18:48:06.628Z,7.80
2019-04-27T18:52:27.891Z,9.80
2019-04-27T18:56:38.441Z,8.57
2019-04-27T19:00:38.851Z,9.47
2019-04-27T19:04:45.042Z,8.97
2019-04-27T19:08:48.792Z,10.77
2019-04-27T19:12:51.902Z,10.03
2019-04-27T19:16:54.874Z,6.20
2019-04-27T19:20:58.509Z,5.90
2019-04-27T19:25:01.714Z,6.27
2019-04-27T19:29:09.541Z,5.23
2019-04-27T19:33:12.723Z,5.80
2019-04-27T19:37:15.814Z,6.10
2019-04-27T19:41:18.869Z,5.87
2019-04-27T19:45:21.895Z,5.27
2019-04-27T19:49:24.928Z,3.83
2019-04-27T19:53:27.928Z,4.57
2019-04-27T19:57:37.930Z,3.60
2019-04-27T20:01:40.569Z,4.00
2019-04-27T20:05:43.693Z,5.50
2019-04-27T20:10:03.353Z,4.00
2019-04-27T20:14:06.458Z,3.63
2019-04-27T20:18:10.838Z,4.63
2019-04-27T20:22:14.124Z,3.93
2019-04-27T20:26:19.908Z,3.30
2019-04-27T20:30:23.052Z,3.27
2019-04-27T20:34:26.156Z,3.43
2019-04-27T20:38:29.153Z,2.90
2019-04-27T20:42:32.164Z,3.00
2019-04-27T20:46:35.242Z,3.10
2019-04-27T20:50:38.355Z,3.00
2019-04-27T20:54:41.488Z,3.40
2019-04-27T20:58:47.848Z,3.90
2019-04-27T21:03:19.128Z,3.60
2019-04-27T21:07:37.674Z,7.13
2019-04-27T21:11:47.415Z,8.27
2019-04-27T21:15:54.678Z,7.23
2019-04-27T21:20:00.605Z,7.70
2019-04-27T21:24:03.902Z,7.40
2019-04-27T21:28:16.538Z,6.97
2019-04-27T21:32:12.410Z,7.57
2019-04-27T21:36:16.036Z,5.30
2019-04-27T21:40:21.335Z,5.00
2019-04-27T21:44:24.727Z,5.60
2019-04-27T21:48:31.327Z,5.10
2019-04-27T21:52:44.368Z,4.50
2019-04-27T21:56:47.907Z,4.43
2019-04-27T22:01:11.488Z,4.80
2019-04-27T22:05:16.195Z,4.50
2019-04-27T22:09:19.325Z,5.07
2019-04-27T22:13:25.331Z,4.37
2019-04-27T22:17:31.421Z,4.80
2019-04-27T22:21:34.603Z,4.60
2019-04-27T22:25:42.168Z,5.00
2019-04-27T22:29:45.379Z,4.90
2019-04-27T22:33:48.629Z,5.20
2019-04-27T22:37:52.043Z,4.97
2019-04-27T22:42:26.441Z,3.97
2019-04-27T22:46:30.804Z,3.60
2019-04-27T22:50:34.338Z,4.67
2019-04-27T22:54:43.448Z,5.60
2019-04-27T22:59:06.000Z,6.77
2019-04-27T23:03:12.334Z,5.33
2019-04-27T23:07:15.315Z,5.53
2019-04-27T23:11:21.430Z,5.27
2019-04-27T23:15:37.138Z,5.50
2019-04-27T23:19:40.909Z,5.27
2019-04-27T23:23:45.436Z,5.20
2019-04-27T23:27:54.385Z,4.30
2019-04-27T23:32:08.481Z,4.43
2019-04-27T23:36:11.623Z,4.67
2019-04-27T23:40:15.969Z,4.70
2019-04-27T23:44:19.066Z,4.43
2019-04-27T23:48:22.716Z,4.87
2019-04-27T23:52:47.863Z,5.23
2019-04-27T23:56:51.859Z,5.40
